MQT83M EDDM-LSZH
Flight info
| Callsign | MQT83M |
|---|---|
| Flight time | 0h 33m |
| Altitude | 24000 |
| Route | MERSI4Q MERSI Y100 MOMUK Y112 RAVED L856 NEGRA |
| Aircraft | A320/M-SDE3FGHIRWY/LB1 |
Departure
| Time | 2026-05-01 13:29 |
|---|---|
| Airport | Munich Airport (EDDM) |
Arrival
| Time | 2026-05-01 14:02 |
|---|---|
| Airport | Zürich Airport (LSZH) |
| Time | Latitude | Longitude | Altitude | Speed | Heading |
|---|---|---|---|---|---|
| 2026-05-01 13:07 | 48.35320 | 11.77683 | 1466 ft | 0 kts | 264° |
| 2026-05-01 13:15 | 48.35320 | 11.77684 | 1466 ft | 2 kts | 264° |
| 2026-05-01 13:16 | 48.35324 | 11.77721 | 1464 ft | 4 kts | 250° |
| 2026-05-01 13:16 | 48.35337 | 11.77752 | 1461 ft | 4 kts | 205° |
| 2026-05-01 13:16 | 48.35348 | 11.77757 | 1458 ft | 1 kts | 174° |
| 2026-05-01 13:21 | 48.35315 | 11.77762 | 1463 ft | 5 kts | 174° |
| 2026-05-01 13:21 | 48.35292 | 11.77766 | 1466 ft | 7 kts | 174° |
| 2026-05-01 13:21 | 48.35261 | 11.77770 | 1464 ft | 8 kts | 174° |
| 2026-05-01 13:21 | 48.35196 | 11.77781 | 1466 ft | 11 kts | 174° |
| 2026-05-01 13:22 | 48.35112 | 11.77794 | 1466 ft | 14 kts | 174° |
| 2026-05-01 13:22 | 48.35054 | 11.77811 | 1459 ft | 15 kts | 170° |
| 2026-05-01 13:22 | 48.34942 | 11.77832 | 1463 ft | 18 kts | 170° |
| 2026-05-01 13:22 | 48.34815 | 11.77875 | 1466 ft | 20 kts | 173° |
| 2026-05-01 13:23 | 48.34682 | 11.77896 | 1459 ft | 18 kts | 182° |
| 2026-05-01 13:23 | 48.34660 | 11.77831 | 1466 ft | 1 kts | 258° |
| 2026-05-01 13:23 | 48.34657 | 11.77802 | 1470 ft | 4 kts | 261° |
| 2026-05-01 13:23 | 48.34651 | 11.77742 | 1467 ft | 7 kts | 261° |
| 2026-05-01 13:24 | 48.34642 | 11.77649 | 1466 ft | 12 kts | 262° |
| 2026-05-01 13:24 | 48.34633 | 11.77520 | 1466 ft | 13 kts | 265° |
| 2026-05-01 13:24 | 48.34621 | 11.77370 | 1461 ft | 16 kts | 262° |
| 2026-05-01 13:25 | 48.34594 | 11.77004 | 1459 ft | 20 kts | 263° |
| 2026-05-01 13:25 | 48.34577 | 11.76790 | 1464 ft | 22 kts | 263° |
| 2026-05-01 13:25 | 48.34559 | 11.76565 | 1467 ft | 24 kts | 264° |
| 2026-05-01 13:25 | 48.34542 | 11.76309 | 1465 ft | 26 kts | 264° |
| 2026-05-01 13:26 | 48.34520 | 11.76027 | 1463 ft | 28 kts | 263° |
| 2026-05-01 13:26 | 48.34497 | 11.75811 | 1462 ft | 14 kts | 240° |
| 2026-05-01 13:26 | 48.34399 | 11.75803 | 1462 ft | 16 kts | 154° |
| 2026-05-01 13:26 | 48.34342 | 11.75917 | 1463 ft | 12 kts | 115° |
| 2026-05-01 13:27 | 48.34306 | 11.76043 | 1468 ft | 14 kts | 112° |
| 2026-05-01 13:27 | 48.34266 | 11.76180 | 1475 ft | 15 kts | 113° |
| 2026-05-01 13:27 | 48.34182 | 11.76599 | 1480 ft | 41 kts | 91° |
| 2026-05-01 13:28 | 48.34343 | 11.78588 | 1483 ft | 149 kts | 84° |
| 2026-05-01 13:28 | 48.34461 | 11.80110 | 1947 ft | 157 kts | 84° |
| 2026-05-01 13:29 | 48.34794 | 11.83330 | 3216 ft | 177 kts | 82° |
| 2026-05-01 13:29 | 48.35058 | 11.87374 | 4584 ft | 208 kts | 88° |
| 2026-05-01 13:30 | 48.34900 | 11.95870 | 7532 ft | 241 kts | 111° |
| 2026-05-01 13:31 | 48.32541 | 11.99573 | 9308 ft | 253 kts | 139° |
| 2026-05-01 13:31 | 48.27606 | 12.02386 | 11230 ft | 299 kts | 189° |
| 2026-05-01 13:32 | 48.24568 | 11.98834 | 12546 ft | 318 kts | 244° |
| 2026-05-01 13:33 | 48.21961 | 11.89523 | 14804 ft | 330 kts | 249° |
| 2026-05-01 13:33 | 48.20266 | 11.83142 | 16187 ft | 337 kts | 249° |
| 2026-05-01 13:34 | 48.18639 | 11.77091 | 17065 ft | 359 kts | 249° |
| 2026-05-01 13:34 | 48.16813 | 11.69749 | 17379 ft | 397 kts | 251° |
| 2026-05-01 13:35 | 48.15171 | 11.62955 | 18339 ft | 408 kts | 250° |
| 2026-05-01 13:35 | 48.14275 | 11.59286 | 18878 ft | 412 kts | 250° |
| 2026-05-01 13:35 | 48.12457 | 11.51941 | 20006 ft | 417 kts | 250° |
| 2026-05-01 13:36 | 48.11439 | 11.47849 | 20641 ft | 420 kts | 250° |
| 2026-05-01 13:36 | 48.10414 | 11.43743 | 21248 ft | 424 kts | 250° |
| 2026-05-01 13:36 | 48.08388 | 11.35670 | 22350 ft | 430 kts | 251° |
| 2026-05-01 13:37 | 48.07332 | 11.31482 | 22902 ft | 432 kts | 251° |
| 2026-05-01 13:37 | 48.06601 | 11.28583 | 23277 ft | 434 kts | 251° |
| 2026-05-01 13:37 | 48.05532 | 11.24347 | 23810 ft | 437 kts | 251° |
| 2026-05-01 13:37 | 48.04455 | 11.20076 | 24196 ft | 440 kts | 251° |
| 2026-05-01 13:38 | 48.02313 | 11.11600 | 24335 ft | 440 kts | 251° |
| 2026-05-01 13:38 | 48.01831 | 11.09701 | 24328 ft | 439 kts | 251° |
| 2026-05-01 13:38 | 48.01050 | 11.06627 | 24335 ft | 439 kts | 251° |
| 2026-05-01 13:39 | 48.00105 | 11.02906 | 24336 ft | 438 kts | 251° |
| 2026-05-01 13:39 | 47.99022 | 10.98646 | 24328 ft | 438 kts | 251° |
| 2026-05-01 13:39 | 47.97938 | 10.94404 | 24331 ft | 438 kts | 251° |
| 2026-05-01 13:39 | 47.97317 | 10.91977 | 24328 ft | 438 kts | 251° |
| 2026-05-01 13:40 | 47.96337 | 10.88152 | 24327 ft | 438 kts | 250° |
| 2026-05-01 13:40 | 47.95244 | 10.83899 | 24329 ft | 438 kts | 250° |
| 2026-05-01 13:40 | 47.94821 | 10.82251 | 24331 ft | 438 kts | 250° |
| 2026-05-01 13:40 | 47.94057 | 10.79277 | 24330 ft | 438 kts | 250° |
| 2026-05-01 13:41 | 47.92880 | 10.74517 | 24331 ft | 437 kts | 255° |
| 2026-05-01 13:41 | 47.92073 | 10.70161 | 24330 ft | 437 kts | 257° |
| 2026-05-01 13:41 | 47.91310 | 10.65959 | 24328 ft | 437 kts | 257° |
| 2026-05-01 13:41 | 47.90523 | 10.61646 | 24321 ft | 436 kts | 256° |
| 2026-05-01 13:42 | 47.90199 | 10.59874 | 24324 ft | 436 kts | 256° |
| 2026-05-01 13:42 | 47.89617 | 10.56795 | 24326 ft | 435 kts | 256° |
| 2026-05-01 13:42 | 47.88791 | 10.52455 | 24325 ft | 435 kts | 256° |
| 2026-05-01 13:42 | 47.87991 | 10.48109 | 24325 ft | 435 kts | 256° |
| 2026-05-01 13:43 | 47.87206 | 10.43785 | 24324 ft | 435 kts | 256° |
| 2026-05-01 13:43 | 47.86418 | 10.39435 | 24324 ft | 435 kts | 257° |
| 2026-05-01 13:43 | 47.85960 | 10.36760 | 24326 ft | 434 kts | 258° |
| 2026-05-01 13:43 | 47.85410 | 10.33242 | 24315 ft | 434 kts | 259° |
| 2026-05-01 13:44 | 47.84783 | 10.28850 | 24325 ft | 434 kts | 260° |
| 2026-05-01 13:44 | 47.84283 | 10.25131 | 24322 ft | 434 kts | 261° |
| 2026-05-01 13:44 | 47.83681 | 10.20737 | 24324 ft | 434 kts | 260° |
| 2026-05-01 13:44 | 47.83256 | 10.17263 | 24311 ft | 432 kts | 266° |
| 2026-05-01 13:45 | 47.83295 | 10.12867 | 24324 ft | 428 kts | 278° |
| 2026-05-01 13:45 | 47.83595 | 10.09215 | 24319 ft | 427 kts | 278° |
| 2026-05-01 13:45 | 47.83599 | 10.04802 | 24320 ft | 430 kts | 265° |
| 2026-05-01 13:45 | 47.83261 | 10.00569 | 24320 ft | 430 kts | 264° |
| 2026-05-01 13:46 | 47.82911 | 9.96345 | 24315 ft | 430 kts | 264° |
| 2026-05-01 13:46 | 47.82594 | 9.92593 | 24312 ft | 430 kts | 264° |
| 2026-05-01 13:46 | 47.82289 | 9.89035 | 24309 ft | 430 kts | 264° |
| 2026-05-01 13:46 | 47.81928 | 9.84821 | 24306 ft | 430 kts | 264° |
| 2026-05-01 13:47 | 47.81546 | 9.80411 | 24303 ft | 430 kts | 264° |
| 2026-05-01 13:47 | 47.81162 | 9.76006 | 24148 ft | 431 kts | 264° |
| 2026-05-01 13:47 | 47.80956 | 9.73638 | 23807 ft | 430 kts | 264° |
| 2026-05-01 13:47 | 47.80564 | 9.69155 | 23235 ft | 422 kts | 264° |
| 2026-05-01 13:48 | 47.80308 | 9.66238 | 22780 ft | 421 kts | 264° |
| 2026-05-01 13:48 | 47.79965 | 9.62281 | 22179 ft | 419 kts | 264° |
| 2026-05-01 13:48 | 47.79592 | 9.57995 | 21536 ft | 417 kts | 263° |
| 2026-05-01 13:48 | 47.79235 | 9.53902 | 20940 ft | 415 kts | 263° |
| 2026-05-01 13:49 | 47.78881 | 9.49886 | 20371 ft | 414 kts | 263° |
| 2026-05-01 13:49 | 47.78563 | 9.46332 | 19861 ft | 413 kts | 263° |
| 2026-05-01 13:49 | 47.78311 | 9.43524 | 19482 ft | 412 kts | 263° |
| 2026-05-01 13:49 | 47.77992 | 9.39969 | 19005 ft | 411 kts | 263° |
| 2026-05-01 13:50 | 47.77616 | 9.35761 | 18394 ft | 410 kts | 263° |
| 2026-05-01 13:50 | 47.77344 | 9.32734 | 17950 ft | 408 kts | 262° |
| 2026-05-01 13:50 | 47.76968 | 9.28588 | 17371 ft | 404 kts | 262° |
| 2026-05-01 13:50 | 47.76598 | 9.24517 | 16804 ft | 401 kts | 262° |
| 2026-05-01 13:51 | 47.76330 | 9.21554 | 16342 ft | 400 kts | 262° |
| 2026-05-01 13:51 | 47.76070 | 9.18694 | 15930 ft | 397 kts | 262° |
| 2026-05-01 13:51 | 47.75699 | 9.14649 | 15314 ft | 395 kts | 262° |
| 2026-05-01 13:51 | 47.75393 | 9.11316 | 14802 ft | 392 kts | 262° |
| 2026-05-01 13:52 | 47.75021 | 9.07310 | 14160 ft | 390 kts | 262° |
| 2026-05-01 13:52 | 47.74659 | 9.03405 | 13471 ft | 388 kts | 262° |
| 2026-05-01 13:52 | 47.74306 | 8.99601 | 12871 ft | 384 kts | 261° |
| 2026-05-01 13:52 | 47.74118 | 8.97589 | 12542 ft | 382 kts | 261° |
| 2026-05-01 13:53 | 47.73886 | 8.95127 | 12157 ft | 379 kts | 261° |
| 2026-05-01 13:53 | 47.73247 | 8.88324 | 11013 ft | 374 kts | 261° |
| 2026-05-01 13:53 | 47.72892 | 8.84544 | 10684 ft | 363 kts | 260° |
| 2026-05-01 13:54 | 47.72555 | 8.80979 | 10563 ft | 346 kts | 260° |
| 2026-05-01 13:54 | 47.72247 | 8.78197 | 10465 ft | 334 kts | 259° |
| 2026-05-01 13:54 | 47.71932 | 8.75197 | 10355 ft | 322 kts | 260° |
| 2026-05-01 13:54 | 47.71725 | 8.72994 | 10274 ft | 314 kts | 261° |
| 2026-05-01 13:55 | 47.71512 | 8.70436 | 9988 ft | 311 kts | 261° |
| 2026-05-01 13:55 | 47.71237 | 8.67299 | 9854 ft | 302 kts | 260° |
| 2026-05-01 13:55 | 47.70955 | 8.64260 | 9678 ft | 296 kts | 258° |
| 2026-05-01 13:55 | 47.70544 | 8.61278 | 9306 ft | 295 kts | 251° |
| 2026-05-01 13:56 | 47.69952 | 8.58504 | 8882 ft | 295 kts | 247° |
| 2026-05-01 13:56 | 47.69214 | 8.55627 | 8367 ft | 300 kts | 245° |
| 2026-05-01 13:56 | 47.68417 | 8.52762 | 7925 ft | 301 kts | 244° |
| 2026-05-01 13:56 | 47.67744 | 8.50587 | 7592 ft | 301 kts | 240° |
| 2026-05-01 13:57 | 47.67202 | 8.49075 | 7345 ft | 297 kts | 238° |
| 2026-05-01 13:57 | 47.66499 | 8.47364 | 7034 ft | 290 kts | 234° |
| 2026-05-01 13:57 | 47.64919 | 8.44272 | 6289 ft | 281 kts | 227° |
| 2026-05-01 13:57 | 47.63556 | 8.42196 | 5587 ft | 280 kts | 221° |
| 2026-05-01 13:58 | 47.62063 | 8.40375 | 5054 ft | 275 kts | 214° |
| 2026-05-01 13:58 | 47.60999 | 8.39400 | 4717 ft | 270 kts | 205° |
| 2026-05-01 13:58 | 47.58935 | 8.38545 | 4312 ft | 254 kts | 178° |
| 2026-05-01 13:58 | 47.57298 | 8.39142 | 4055 ft | 237 kts | 146° |
| 2026-05-01 13:59 | 47.56231 | 8.40759 | 3781 ft | 210 kts | 112° |
| 2026-05-01 13:59 | 47.55819 | 8.42763 | 3420 ft | 206 kts | 106° |
| 2026-05-01 13:59 | 47.55273 | 8.44718 | 3071 ft | 201 kts | 118° |
| 2026-05-01 13:59 | 47.54734 | 8.45819 | 2827 ft | 199 kts | 130° |
| 2026-05-01 14:00 | 47.53710 | 8.47208 | 2608 ft | 193 kts | 142° |
| 2026-05-01 14:00 | 47.52641 | 8.48246 | 2539 ft | 173 kts | 146° |
| 2026-05-01 14:00 | 47.51700 | 8.49150 | 2363 ft | 155 kts | 143° |
| 2026-05-01 14:00 | 47.50871 | 8.50053 | 2113 ft | 143 kts | 137° |
| 2026-05-01 14:01 | 47.50133 | 8.50996 | 1874 ft | 139 kts | 132° |
| 2026-05-01 14:01 | 47.49462 | 8.51914 | 1745 ft | 139 kts | 134° |
| 2026-05-01 14:01 | 47.48773 | 8.52879 | 1610 ft | 138 kts | 133° |
| 2026-05-01 14:01 | 47.48061 | 8.53827 | 1462 ft | 137 kts | 134° |
| 2026-05-01 14:02 | 47.47428 | 8.54673 | 1407 ft | 124 kts | 135° |
| 2026-05-01 14:02 | 47.46901 | 8.55404 | 1402 ft | 81 kts | 138° |
| 2026-05-01 14:02 | 47.46646 | 8.55734 | 1404 ft | 40 kts | 137° |
| 2026-05-01 14:02 | 47.46456 | 8.55929 | 1397 ft | 32 kts | 162° |
| 2026-05-01 14:03 | 47.46343 | 8.55971 | 1399 ft | 10 kts | 172° |
| 2026-05-01 14:03 | 47.46268 | 8.55985 | 1398 ft | 12 kts | 175° |
| 2026-05-01 14:03 | 47.46220 | 8.55907 | 1402 ft | 12 kts | 274° |
| 2026-05-01 14:03 | 47.46231 | 8.55763 | 1398 ft | 14 kts | 276° |
| 2026-05-01 14:04 | 47.46240 | 8.55647 | 1400 ft | 12 kts | 277° |
| 2026-05-01 14:04 | 47.46247 | 8.55540 | 1397 ft | 11 kts | 264° |
| 2026-05-01 14:04 | 47.46186 | 8.55493 | 1400 ft | 5 kts | 188° |
| 2026-05-01 14:04 | 47.46174 | 8.55491 | 1400 ft | 0 kts | 186° |